Time;durP1;ratioP1;P1;durP2;ratioP2;P2;SDS_P1;SDS_P2;PMS_P1;PMS_P2;Temp;Humidity;BMP_temperature;BMP_pressure;BME280_temperature;BME280_humidity;BME280_pressure;Samples;Min_cycle;Max_cycle;Signal;HPM_P1;HPM_P2
2022/05/17 00:00:43;;;;;;;7.35;4.38;;;;;;;15.28;81.14;96159.06;5023164;28;20501;-59
2022/05/17 00:03:08;;;;;;;4.88;4.22;;;;;;;15.26;80.97;96163.69;5019940;28;20041;-59
2022/05/17 00:05:34;;;;;;;4.47;3.80;;;;;;;15.23;82.03;96167.50;5022839;28;20014;-59
2022/05/17 00:08:00;;;;;;;6.88;3.90;;;;;;;15.18;81.02;96167.16;5011574;28;20034;-59
2022/05/17 00:10:26;;;;;;;6.22;4.38;;;;;;;15.14;80.70;96168.47;5022324;28;20504;-59
2022/05/17 00:12:51;;;;;;;6.65;3.72;;;;;;;15.13;81.04;96166.81;5022448;28;20029;-59
2022/05/17 00:15:18;;;;;;;7.18;3.92;;;;;;;15.07;81.11;96162.97;5019701;28;20100;-59
2022/05/17 00:17:45;;;;;;;7.15;4.07;;;;;;;15.06;81.19;96161.28;5019403;28;20512;-59
2022/05/17 00:20:11;;;;;;;4.63;4.10;;;;;;;15.00;81.83;96161.94;5020500;28;20421;-59
2022/05/17 00:22:37;;;;;;;4.50;4.15;;;;;;;14.92;82.06;96162.72;5022763;28;20163;-60
2022/05/17 00:25:04;;;;;;;7.28;4.72;;;;;;;14.95;82.03;96164.25;5021657;28;20503;-59
2022/05/17 00:27:29;;;;;;;4.80;3.95;;;;;;;14.94;81.51;96157.28;5019573;28;20421;-59
2022/05/17 00:29:55;;;;;;;5.53;4.38;;;;;;;14.89;81.80;96153.25;5013460;28;20038;-59
2022/05/17 00:32:20;;;;;;;7.07;4.88;;;;;;;14.84;82.08;96149.44;5022295;28;20034;-59
2022/05/17 00:34:46;;;;;;;4.40;4.00;;;;;;;14.81;82.38;96157.69;5022296;28;20025;-59
2022/05/17 00:37:13;;;;;;;7.03;4.50;;;;;;;14.73;82.96;96155.84;5013557;28;20029;-59
2022/05/17 00:39:38;;;;;;;5.28;4.32;;;;;;;14.73;82.57;96150.53;5021160;28;20109;-59
2022/05/17 00:42:05;;;;;;;4.55;4.07;;;;;;;14.74;82.89;96150.34;5014061;28;20116;-59
2022/05/17 00:44:42;;;;;;;11.85;4.15;;;;;;;14.72;83.26;96155.00;5018701;28;20025;-59
2022/05/17 00:47:23;;;;;;;4.93;4.30;;;;;;;14.67;84.00;96156.41;5014386;28;20409;-59
2022/05/17 00:50:06;;;;;;;6.72;5.13;;;;;;;14.65;83.34;96161.88;5013392;28;20041;-59
2022/05/17 00:52:43;;;;;;;6.18;4.53;;;;;;;14.63;83.23;96163.84;5020755;28;20519;-59
2022/05/17 00:55:32;;;;;;;5.57;4.05;;;;;;;14.61;83.61;96156.06;5024938;28;20079;-59
2022/05/17 00:58:09;;;;;;;7.85;4.53;;;;;;;14.55;84.42;96154.03;5017723;28;20061;-59
2022/05/17 01:00:40;;;;;;;10.07;4.53;;;;;;;14.52;83.84;96150.84;5021513;28;20068;-59
2022/05/17 01:03:13;;;;;;;5.85;3.95;;;;;;;14.46;83.43;96149.66;5019072;28;20061;-59
2022/05/17 01:05:46;;;;;;;4.32;3.95;;;;;;;14.48;83.46;96153.00;5012895;28;20018;-59
2022/05/17 01:08:14;;;;;;;7.85;4.15;;;;;;;14.50;83.30;96147.53;5020495;28;20499;-59
2022/05/17 01:10:40;;;;;;;4.35;4.03;;;;;;;14.44;83.79;96146.31;5020279;28;20033;-59
2022/05/17 01:15:50;;;;;;;11.18;4.57;;;;;;;14.42;84.05;96145.66;5021681;28;20120;-59
2022/05/17 01:18:16;;;;;;;6.88;4.15;;;;;;;14.42;84.56;96153.59;5016955;28;20471;-59
2022/05/17 01:20:41;;;;;;;10.90;4.65;;;;;;;14.33;84.55;96148.25;5021274;28;20034;-59
2022/05/17 01:23:07;;;;;;;6.90;4.30;;;;;;;14.38;84.00;96149.59;5021244;28;20522;-60
2022/05/17 01:25:34;;;;;;;8.68;4.43;;;;;;;14.43;83.85;96149.97;5017075;28;20485;-59
2022/05/17 01:28:20;;;;;;;4.88;4.30;;;;;;;14.44;83.64;96151.63;5018761;28;20428;-59
2022/05/17 01:30:46;;;;;;;4.88;4.50;;;;;;;14.42;83.85;96149.16;5018751;28;20025;-59
2022/05/17 01:33:14;;;;;;;6.38;4.18;;;;;;;14.41;83.96;96146.63;5020724;28;20120;-59
2022/05/17 01:35:39;;;;;;;4.63;4.18;;;;;;;14.38;85.24;96147.81;5012538;28;20061;-59
2022/05/17 01:38:05;;;;;;;4.90;4.40;;;;;;;14.37;84.73;96148.78;5025614;28;20034;-59
2022/05/17 01:40:30;;;;;;;6.90;4.40;;;;;;;14.36;84.52;96148.94;5019790;28;20075;-59
2022/05/17 01:42:56;;;;;;;4.40;4.00;;;;;;;14.32;84.15;96141.28;5021073;28;20029;-59
2022/05/17 01:45:21;;;;;;;7.13;4.50;;;;;;;14.28;84.74;96145.25;5021315;28;20072;-60
2022/05/17 01:47:47;;;;;;;7.13;4.38;;;;;;;14.15;85.24;96140.34;5018277;28;20442;-59
2022/05/17 01:50:12;;;;;;;4.97;4.38;;;;;;;14.12;85.09;96150.41;5020155;28;20036;-59
2022/05/17 01:52:38;;;;;;;4.75;4.30;;;;;;;14.06;85.06;96137.78;5023330;28;20029;-59
2022/05/17 01:55:04;;;;;;;6.72;4.10;;;;;;;13.99;85.46;96138.38;5018648;28;20030;-59
2022/05/17 01:57:29;;;;;;;8.25;4.70;;;;;;;13.95;85.53;96134.38;5020700;28;20029;-59
2022/05/17 01:59:54;;;;;;;13.23;4.65;;;;;;;13.89;85.52;96142.94;5018440;28;20108;-59
2022/05/17 02:02:20;;;;;;;6.07;4.55;;;;;;;13.82;85.78;96149.81;5020371;28;20472;-59
2022/05/17 02:04:45;;;;;;;5.50;3.90;;;;;;;13.80;86.20;96143.81;5020811;28;20045;-59
2022/05/17 02:07:10;;;;;;;7.72;4.28;;;;;;;13.77;85.90;96142.31;5021199;28;20032;-59
2022/05/17 02:09:36;;;;;;;6.97;5.32;;;;;;;13.81;85.93;96145.47;5017062;28;20500;-59
2022/05/17 02:12:03;;;;;;;7.10;4.70;;;;;;;13.77;86.27;96146.78;5016151;28;20033;-59
2022/05/17 02:14:28;;;;;;;5.47;4.20;;;;;;;13.68;87.16;96146.69;5017335;28;20400;-59
2022/05/17 02:16:53;;;;;;;8.10;4.47;;;;;;;13.68;87.05;96152.00;5019796;28;20022;-59
2022/05/17 02:19:20;;;;;;;6.47;4.75;;;;;;;13.65;88.03;96144.34;5018947;28;20036;-59
2022/05/17 02:21:47;;;;;;;6.18;4.70;;;;;;;13.64;87.84;96153.28;5014161;28;20041;-59
2022/05/17 02:24:13;;;;;;;5.50;4.82;;;;;;;13.62;87.85;96149.94;5017955;28;20563;-59
2022/05/17 02:26:38;;;;;;;7.82;5.00;;;;;;;13.66;87.34;96150.47;5010110;28;20063;-59
2022/05/17 02:29:04;;;;;;;5.65;4.75;;;;;;;13.70;87.00;96144.72;5011626;28;20454;-59
2022/05/17 02:31:30;;;;;;;5.85;4.93;;;;;;;13.76;86.57;96153.88;5019993;28;20022;-59
2022/05/17 02:33:55;;;;;;;4.85;4.40;;;;;;;13.75;86.59;96141.66;5020329;28;20500;-59
2022/05/17 02:36:21;;;;;;;7.38;4.38;;;;;;;13.74;86.87;96148.72;5022956;28;20034;-59
2022/05/17 02:38:46;;;;;;;8.88;5.15;;;;;;;13.73;86.91;96147.06;5019262;28;20361;-59
2022/05/17 02:41:12;;;;;;;7.13;4.75;;;;;;;13.68;87.46;96144.06;5020382;28;20095;-59
2022/05/17 02:43:38;;;;;;;5.30;4.30;;;;;;;13.68;87.68;96152.00;5017861;28;20607;-59
2022/05/17 02:46:05;;;;;;;4.53;4.10;;;;;;;13.70;87.33;96144.72;5021444;28;20036;-59
2022/05/17 02:48:30;;;;;;;9.38;4.57;;;;;;;13.70;87.49;96147.38;5026310;28;20021;-60
2022/05/17 02:50:56;;;;;;;5.78;4.47;;;;;;;13.70;87.62;96152.66;5025708;28;20029;-59
2022/05/17 02:53:21;;;;;;;5.00;4.60;;;;;;;13.69;87.56;96140.44;5030141;28;20068;-60
2022/05/17 02:55:47;;;;;;;5.10;4.65;;;;;;;13.67;87.76;96147.69;5032946;28;20477;-59
2022/05/17 02:58:12;;;;;;;4.90;4.40;;;;;;;13.68;87.24;96157.28;5033019;28;20022;-59
2022/05/17 03:00:38;;;;;;;4.72;4.30;;;;;;;13.68;87.04;96156.44;5030040;28;20504;-59
2022/05/17 03:03:04;;;;;;;6.75;4.88;;;;;;;13.67;87.44;96150.31;5032883;28;20045;-59
2022/05/17 03:05:29;;;;;;;10.13;4.75;;;;;;;13.65;87.94;96152.28;5033154;28;20028;-59
2022/05/17 03:07:55;;;;;;;5.90;5.25;;;;;;;13.60;88.14;96151.91;5033258;28;20076;-59
2022/05/17 03:10:21;;;;;;;6.55;5.05;;;;;;;13.54;88.40;96155.13;5032556;28;20065;-59
2022/05/17 03:12:47;;;;;;;5.25;4.45;;;;;;;13.50;88.29;96146.69;5032457;28;20079;-59
2022/05/17 03:15:20;;;;;;;5.55;4.68;;;;;;;13.48;88.79;96150.44;5032818;28;20029;-59
2022/05/17 03:17:46;;;;;;;8.20;4.70;;;;;;;13.43;88.65;96149.09;5018798;28;20034;-59
2022/05/17 03:20:12;;;;;;;8.25;5.20;;;;;;;13.42;88.93;96150.03;5021984;28;20700;-60
2022/05/17 03:22:37;;;;;;;5.00;4.15;;;;;;;13.39;88.81;96155.63;5032404;28;20036;-59
2022/05/17 03:25:03;;;;;;;5.25;4.85;;;;;;;13.40;88.32;96153.81;5032312;28;20029;-60
2022/05/17 03:27:28;;;;;;;5.40;4.90;;;;;;;13.38;88.88;96156.63;5032791;28;20431;-59
2022/05/17 03:29:54;;;;;;;6.68;4.20;;;;;;;13.40;88.70;96149.38;5032345;28;20090;-60
2022/05/17 03:32:19;;;;;;;5.10;4.63;;;;;;;13.33;89.79;96158.84;5028548;28;20033;-59
2022/05/17 03:34:44;;;;;;;7.90;5.40;;;;;;;13.28;89.35;96147.88;5021609;28;20480;-59
2022/05/17 03:37:10;;;;;;;5.47;4.97;;;;;;;13.27;89.62;96156.81;5031902;28;20039;-59
2022/05/17 03:39:35;;;;;;;7.20;4.85;;;;;;;13.27;89.39;96149.72;5032203;28;20030;-59
2022/05/17 03:42:00;;;;;;;6.65;4.78;;;;;;;13.27;89.87;96149.72;5032214;28;20033;-59
2022/05/17 03:44:26;;;;;;;5.53;4.55;;;;;;;13.28;89.41;96156.66;5020764;28;20132;-59
2022/05/17 03:46:51;;;;;;;7.65;5.40;;;;;;;13.25;90.08;96156.13;5023158;28;20369;-59
2022/05/17 03:49:17;;;;;;;5.95;4.70;;;;;;;13.23;90.14;96160.72;5022714;28;20033;-59
2022/05/17 03:51:47;;;;;;;8.48;5.43;;;;;;;13.23;90.42;96158.91;5016885;28;20040;-59
2022/05/17 03:54:14;;;;;;;5.25;4.63;;;;;;;13.15;90.40;96157.00;5020603;28;20189;-59
2022/05/17 03:56:39;;;;;;;8.80;4.93;;;;;;;13.12;91.01;96156.47;5027536;28;20060;-59
2022/05/17 03:59:04;;;;;;;5.43;4.93;;;;;;;13.07;91.12;96159.53;5021062;28;20045;-59
2022/05/17 04:01:30;;;;;;;6.38;4.60;;;;;;;13.04;90.48;96157.19;5014474;28;20026;-59
2022/05/17 04:03:55;;;;;;;11.70;5.15;;;;;;;13.03;90.29;96152.88;5011142;28;20010;-59
2022/05/17 04:06:21;;;;;;;6.45;4.97;;;;;;;13.00;90.69;96155.81;5022916;28;20030;-59
2022/05/17 04:08:47;;;;;;;6.57;5.28;;;;;;;13.04;90.09;96158.03;5028306;28;20028;-59
2022/05/17 04:11:12;;;;;;;10.68;4.85;;;;;;;12.97;91.51;96153.47;5031046;28;20385;-59
2022/05/17 04:13:38;;;;;;;9.32;6.57;;;;;;;12.96;91.63;96151.81;5031683;28;20060;-59
2022/05/17 04:16:03;;;;;;;8.20;6.63;;;;;;;12.98;92.46;96161.25;5031703;28;20061;-59
2022/05/17 04:18:29;;;;;;;8.55;5.57;;;;;;;12.96;91.44;96160.56;5031621;28;20392;-59
2022/05/17 04:21:02;;;;;;;5.82;5.22;;;;;;;12.90;92.00;96158.50;5031550;28;20033;-59
2022/05/17 04:23:28;;;;;;;6.47;5.63;;;;;;;12.97;91.48;96159.56;5028792;28;20308;-59
2022/05/17 04:25:53;;;;;;;5.93;5.32;;;;;;;12.97;92.58;96161.41;5031391;28;20021;-60
2022/05/17 04:28:19;;;;;;;9.38;5.60;;;;;;;12.97;92.75;96154.28;5031509;28;20029;-59
2022/05/17 04:30:44;;;;;;;8.00;6.05;;;;;;;13.02;92.33;96153.88;5031303;28;20038;-59
2022/05/17 04:33:10;;;;;;;8.63;6.13;;;;;;;13.03;92.05;96152.88;5031354;28;20079;-59
2022/05/17 04:35:36;;;;;;;7.35;5.97;;;;;;;13.04;91.09;96154.53;5031495;28;20048;-59
2022/05/17 04:38:01;;;;;;;8.43;5.28;;;;;;;13.05;91.28;96156.22;5029397;28;20124;-59
2022/05/17 04:40:27;;;;;;;9.43;5.63;;;;;;;13.08;91.07;96152.44;5029818;28;20042;-59
2022/05/17 04:42:56;;;;;;;6.78;5.38;;;;;;;13.06;91.73;96154.41;5031358;28;20030;-60
2022/05/17 04:45:22;;;;;;;10.55;5.45;;;;;;;13.04;91.31;96155.41;5030636;28;20033;-59
2022/05/17 04:47:47;;;;;;;6.70;5.43;;;;;;;13.08;91.53;96155.91;5030873;28;20028;-59
2022/05/17 04:50:14;;;;;;;8.85;5.53;;;;;;;13.07;91.10;96159.53;5031022;28;20461;-59
2022/05/17 04:52:39;;;;;;;7.40;5.55;;;;;;;13.09;90.90;96154.94;5031058;28;20124;-59
2022/05/17 04:55:06;;;;;;;6.20;5.68;;;;;;;13.15;91.19;96162.31;5030201;28;20061;-59
2022/05/17 04:57:32;;;;;;;7.82;5.40;;;;;;;13.18;91.33;96163.81;5030312;28;20036;-59
2022/05/17 04:59:59;;;;;;;6.32;5.07;;;;;;;13.12;91.60;96172.31;5030665;28;20041;-59
2022/05/17 05:02:25;;;;;;;6.30;5.53;;;;;;;13.13;91.25;96164.22;5030479;28;20037;-59
2022/05/17 05:04:50;;;;;;;7.60;6.07;;;;;;;13.17;91.43;96170.91;5030362;28;20036;-59
2022/05/17 05:07:16;;;;;;;12.30;5.88;;;;;;;13.20;91.44;96168.94;5011412;28;20021;-59
2022/05/17 05:09:41;;;;;;;7.85;5.25;;;;;;;13.20;91.58;96177.69;5009441;28;20025;-59
2022/05/17 05:12:07;;;;;;;6.95;4.88;;;;;;;13.23;91.32;96176.59;5010029;28;20056;-60
2022/05/17 05:14:32;;;;;;;5.50;4.85;;;;;;;13.23;91.86;96180.06;5009452;28;20034;-59
2022/05/17 05:16:58;;;;;;;7.13;5.00;;;;;;;13.29;91.41;96179.47;5009498;28;20037;-61
2022/05/17 05:19:23;;;;;;;7.63;5.25;;;;;;;13.40;91.53;96174.97;5010069;28;20042;-60
2022/05/17 05:21:49;;;;;;;8.75;5.18;;;;;;;13.54;91.23;96184.25;5010556;28;20104;-59
2022/05/17 05:24:14;;;;;;;7.45;5.30;;;;;;;13.65;90.29;96180.56;5010697;28;20449;-59
2022/05/17 05:26:39;;;;;;;6.22;5.30;;;;;;;13.81;89.49;96177.22;5011037;28;20022;-59
2022/05/17 05:29:06;;;;;;;10.68;5.70;;;;;;;14.02;88.81;96183.06;5009927;28;20124;-59
2022/05/17 05:31:31;;;;;;;8.50;6.00;;;;;;;14.26;86.86;96178.16;5011484;28;20136;-59
2022/05/17 05:34:00;;;;;;;6.68;5.00;;;;;;;14.39;86.46;96180.41;5029017;28;20520;-59
2022/05/17 05:36:26;;;;;;;6.15;4.70;;;;;;;14.42;86.78;96183.59;5028762;28;20416;-59
2022/05/17 05:38:51;;;;;;;5.25;4.82;;;;;;;14.57;86.17;96169.75;5029757;28;20074;-58
2022/05/17 05:41:16;;;;;;;6.90;5.28;;;;;;;14.68;84.69;96176.63;5029999;28;20034;-59
2022/05/17 05:43:42;;;;;;;5.78;5.18;;;;;;;14.77;84.04;96181.03;5029875;28;20516;-59
2022/05/17 05:46:07;;;;;;;7.28;4.80;;;;;;;14.89;83.50;96177.09;5029824;28;20029;-60
2022/05/17 05:48:32;;;;;;;8.88;4.80;;;;;;;14.96;82.97;96179.97;5029927;28;20060;-59
2022/05/17 05:50:58;;;;;;;7.63;5.00;;;;;;;15.13;83.19;96183.53;5029795;28;20037;-59
2022/05/17 05:53:23;;;;;;;6.35;5.15;;;;;;;15.26;83.29;96182.28;5026501;28;20033;-59
2022/05/17 05:55:51;;;;;;;9.13;3.92;;;;;;;15.39;82.13;96180.00;5027760;28;20021;-60
2022/05/17 05:58:17;;;;;;;8.20;4.60;;;;;;;15.55;81.77;96187.19;5010326;28;20030;-59
2022/05/17 06:00:43;;;;;;;6.97;4.97;;;;;;;15.71;80.95;96183.75;5010303;28;20418;-59
2022/05/17 06:03:09;;;;;;;9.63;5.63;;;;;;;15.87;80.52;96180.28;5010160;28;20035;-59
2022/05/17 06:05:36;;;;;;;5.88;5.35;;;;;;;16.11;79.32;96193.81;5024644;28;20036;-59
2022/05/17 06:08:02;;;;;;;14.77;5.97;;;;;;;16.30;78.29;96180.22;5029722;28;20052;-60
2022/05/17 06:10:28;;;;;;;7.70;4.88;;;;;;;16.46;76.79;96184.69;5028489;28;20642;-60
2022/05/17 06:12:54;;;;;;;6.93;4.93;;;;;;;16.65;75.92;96184.50;5027383;28;20025;-59
2022/05/17 06:15:19;;;;;;;6.53;4.70;;;;;;;16.89;75.87;96187.13;5010000;28;20032;-59
2022/05/17 06:17:45;;;;;;;6.10;4.75;;;;;;;17.11;75.29;96182.09;5010291;28;20516;-59
2022/05/17 06:20:16;;;;;;;10.23;5.28;;;;;;;17.33;74.76;96185.03;5009769;28;20030;-59
2022/05/17 06:22:42;;;;;;;14.25;4.50;;;;;;;17.63;73.43;96185.25;5008962;28;20044;-59
2022/05/17 06:25:08;;;;;;;10.50;4.55;;;;;;;17.80;72.79;96187.81;5010265;28;20474;-59
2022/05/17 06:27:33;;;;;;;5.90;4.60;;;;;;;17.99;71.12;96184.69;5013986;28;20032;-59
2022/05/17 06:29:59;;;;;;;8.25;4.18;;;;;;;18.35;70.58;96182.47;5013832;28;20030;-59
2022/05/17 06:32:25;;;;;;;5.07;4.45;;;;;;;18.63;68.31;96181.91;5013746;28;20145;-59
2022/05/17 06:34:50;;;;;;;5.95;4.50;;;;;;;19.00;66.11;96180.25;5013639;28;20021;-59
2022/05/17 06:37:16;;;;;;;5.45;4.43;;;;;;;19.10;65.91;96180.78;5014075;28;20037;-60
2022/05/17 06:39:42;;;;;;;7.35;4.57;;;;;;;19.27;64.66;96178.78;5013635;28;20028;-59
2022/05/17 06:42:08;;;;;;;5.15;4.65;;;;;;;19.45;64.09;96178.38;5013810;28;20100;-60
2022/05/17 06:44:34;;;;;;;6.10;4.45;;;;;;;19.69;64.85;96192.44;5013598;28;20028;-59
2022/05/17 06:46:59;;;;;;;8.55;4.95;;;;;;;19.95;63.29;96182.28;5013524;28;20030;-59
2022/05/17 06:49:26;;;;;;;8.88;4.10;;;;;;;20.13;63.11;96185.34;5013551;28;20033;-59
2022/05/17 06:51:52;;;;;;;6.00;4.40;;;;;;;20.28;62.07;96185.28;5013348;28;20088;-60
2022/05/17 06:54:18;;;;;;;9.95;4.30;;;;;;;20.56;60.57;96181.81;5016252;28;20485;-59
2022/05/17 06:56:44;;;;;;;5.93;4.20;;;;;;;20.69;58.57;96173.06;5033165;28;20060;-59
2022/05/17 06:59:09;;;;;;;5.28;4.20;;;;;;;20.69;59.65;96177.63;5032917;28;20073;-59
2022/05/17 07:01:35;;;;;;;6.55;4.97;;;;;;;20.78;60.92;96181.78;5033176;28;20107;-59
2022/05/17 07:04:01;;;;;;;6.88;4.93;;;;;;;20.93;60.71;96179.03;5032879;28;20116;-60
2022/05/17 07:06:27;;;;;;;8.02;4.38;;;;;;;21.18;59.96;96178.56;5032965;28;20040;-59
2022/05/17 07:08:53;;;;;;;7.10;4.43;;;;;;;21.47;56.97;96171.31;5032737;28;20021;-59
2022/05/17 07:14:03;;;;;;;7.13;4.50;;;;;;;21.89;55.35;96165.91;5032695;28;20036;-59
2022/05/17 07:16:29;;;;;;;5.78;3.92;;;;;;;22.23;52.96;96155.25;5032861;28;20025;-59
2022/05/17 07:18:54;;;;;;;8.27;4.05;;;;;;;22.10;55.22;96161.44;5032506;28;20025;-59
2022/05/17 07:21:19;;;;;;;7.50;4.05;;;;;;;22.36;53.69;96162.50;5032913;28;20080;-59
2022/05/17 07:23:45;;;;;;;5.47;3.53;;;;;;;22.88;49.45;96157.34;5032661;28;20030;-59
2022/05/17 07:26:12;;;;;;;4.07;3.65;;;;;;;23.57;49.89;96144.38;5032561;28;20152;-59
2022/05/17 07:28:50;;;;;;;8.85;3.85;;;;;;;23.18;48.72;96144.28;5032465;28;20034;-59
2022/05/17 07:31:15;;;;;;;7.65;4.55;;;;;;;22.99;50.91;96147.84;5032616;28;20063;-58
2022/05/17 07:33:41;;;;;;;5.00;3.95;;;;;;;23.32;49.41;96139.72;5032605;28;20038;-59
2022/05/17 07:36:08;;;;;;;5.50;3.72;;;;;;;23.41;48.37;96140.31;5032501;28;20117;-59
2022/05/17 07:38:34;;;;;;;5.00;4.07;;;;;;;23.15;50.67;96152.78;5031254;28;20025;-58
2022/05/17 07:41:00;;;;;;;7.03;3.70;;;;;;;23.34;50.28;96144.06;5032399;28;20044;-59
2022/05/17 07:43:26;;;;;;;4.07;3.67;;;;;;;23.27;51.04;96138.69;5032336;28;20029;-59
2022/05/17 07:45:51;;;;;;;10.50;4.43;;;;;;;23.75;49.62;96146.34;5032528;28;20033;-59
2022/05/17 07:48:18;;;;;;;6.47;4.15;;;;;;;23.58;50.48;96147.91;5032220;28;20036;-59
2022/05/17 07:50:44;;;;;;;9.18;4.05;;;;;;;23.65;48.91;96140.63;5032126;28;20802;-58
2022/05/17 07:53:12;;;;;;;5.50;3.67;;;;;;;23.26;49.55;96137.91;5028821;28;20061;-59
2022/05/17 07:55:39;;;;;;;4.35;3.65;;;;;;;23.00;50.26;96144.13;5032049;28;20451;-59
2022/05/17 07:58:06;;;;;;;3.88;3.50;;;;;;;23.14;50.74;96142.22;5032017;28;20041;-59
2022/05/17 08:00:32;;;;;;;7.22;3.40;;;;;;;23.67;49.18;96140.44;5031882;28;20045;-59
2022/05/17 08:02:59;;;;;;;7.30;3.95;;;;;;;23.74;47.80;96135.84;5032175;28;20029;-59
2022/05/17 08:05:26;;;;;;;7.65;4.18;;;;;;;24.09;46.65;96140.00;5032194;28;20036;-59
2022/05/17 08:07:52;;;;;;;5.70;4.03;;;;;;;24.18;45.67;96133.31;5030895;28;20030;-59
2022/05/17 08:10:18;;;;;;;9.55;3.80;;;;;;;24.44;44.83;96137.69;5031859;28;20029;-59
2022/05/17 08:12:43;;;;;;;5.60;3.72;;;;;;;24.40;45.21;96130.25;5031826;28;20029;-58
2022/05/17 08:15:09;;;;;;;8.00;3.88;;;;;;;25.09;44.07;96137.53;5031543;28;20092;-59
2022/05/17 08:17:35;;;;;;;7.13;3.67;;;;;;;25.02;42.44;96138.44;5031698;28;20397;-59
2022/05/17 08:20:01;;;;;;;5.82;3.55;;;;;;;25.18;42.89;96134.34;5031604;28;20100;-59
2022/05/17 08:22:26;;;;;;;5.18;3.50;;;;;;;24.82;41.58;96132.44;5031939;28;20405;-59
2022/05/17 08:27:39;;;;;;;8.02;4.00;;;;;;;24.74;44.58;96120.84;5031350;28;20035;-59
2022/05/17 08:30:15;;;;;;;7.93;3.67;;;;;;;24.94;44.39;96119.06;5031453;28;20065;-59
2022/05/17 08:35:52;;;;;;;8.35;3.45;;;;;;;25.30;42.55;96118.25;5031486;28;20412;-59
2022/05/17 08:38:27;;;;;;;4.30;3.38;;;;;;;25.20;43.14;96111.72;5031340;28;20033;-59
2022/05/17 08:40:58;;;;;;;7.13;3.83;;;;;;;25.57;42.60;96117.13;5031321;28;20480;-59
2022/05/17 08:43:51;;;;;;;4.68;4.10;;;;;;;25.61;41.69;96112.94;5031600;28;20068;-59
2022/05/17 08:46:50;;;;;;;4.63;3.70;;;;;;;25.76;42.42;96109.00;5031172;28;20071;-59
2022/05/17 08:49:24;;;;;;;4.97;3.70;;;;;;;25.60;41.46;96111.28;5030811;28;20475;-59
2022/05/17 08:51:57;;;;;;;5.90;3.75;;;;;;;26.30;40.89;96092.84;5030999;28;20669;-59
2022/05/17 08:54:30;;;;;;;8.77;3.72;;;;;;;26.15;40.65;96101.38;5030893;28;20026;-59
2022/05/17 08:57:06;;;;;;;5.85;3.75;;;;;;;25.81;43.09;96101.06;5031191;28;20510;-59
2022/05/17 08:59:35;;;;;;;5.68;4.15;;;;;;;26.25;42.14;96096.28;5030666;28;20071;-59
2022/05/17 09:02:10;;;;;;;9.02;3.50;;;;;;;25.76;43.73;96098.22;5030852;28;20400;-59
2022/05/17 09:05:23;;;;;;;6.78;3.28;;;;;;;26.52;41.29;96089.59;5030858;28;20029;-59
2022/05/17 09:08:04;;;;;;;5.78;3.45;;;;;;;26.59;40.78;96093.03;5025426;28;20524;-59
2022/05/17 09:10:37;;;;;;;8.25;3.53;;;;;;;25.94;42.28;96098.16;5016809;28;20034;-59
2022/05/17 09:13:17;;;;;;;4.30;3.45;;;;;;;26.14;42.07;96084.38;5010901;28;20034;-59
2022/05/17 09:15:44;;;;;;;5.72;3.67;;;;;;;26.19;41.05;96086.38;5010862;28;20030;-59
2022/05/17 09:18:14;;;;;;;5.80;3.40;;;;;;;26.34;40.36;96090.53;5010965;28;20397;-59
2022/05/17 09:20:40;;;;;;;5.00;3.30;;;;;;;26.28;39.92;96085.00;5010751;28;20067;-59
2022/05/17 09:23:07;;;;;;;10.85;3.55;;;;;;;26.47;39.29;96082.22;5010753;28;20091;-59
2022/05/17 09:26:00;;;;;;;11.02;3.45;;;;;;;26.64;39.17;96081.50;5010895;28;20029;-58
2022/05/17 09:28:46;;;;;;;4.07;3.47;;;;;;;26.24;39.97;96085.69;5010688;28;20590;-58
2022/05/17 09:31:34;;;;;;;7.18;3.45;;;;;;;25.97;40.81;96070.72;5010534;28;20037;-59
2022/05/17 09:34:02;;;;;;;6.80;3.25;;;;;;;26.27;40.66;96072.56;5010746;28;20026;-59
2022/05/17 09:37:09;;;;;;;8.30;3.42;;;;;;;26.28;40.56;96067.97;5010620;28;20030;-59
2022/05/17 09:39:35;;;;;;;5.50;3.53;;;;;;;26.49;38.81;96063.91;4968978;28;20065;-59
2022/05/17 09:42:03;;;;;;;6.47;3.60;;;;;;;26.70;39.19;96064.38;5003718;28;20030;-58
2022/05/17 09:44:30;;;;;;;7.57;3.38;;;;;;;26.49;40.46;96057.69;5010432;28;20452;-59
2022/05/17 09:47:06;;;;;;;4.65;3.50;;;;;;;26.92;39.17;96061.91;5010290;28;20569;-59
2022/05/17 09:52:32;;;;;;;7.60;3.42;;;;;;;26.50;39.36;96054.75;5010543;28;20096;-58
2022/05/17 09:55:06;;;;;;;5.80;3.20;;;;;;;26.78;38.97;96049.69;5023727;28;20029;-59
2022/05/17 09:57:32;;;;;;;;;;;;;;;27.21;37.84;96058.44;5030693;28;20056;-59
2022/05/17 10:00:12;;;;;;;10.50;3.08;;;;;;;27.14;38.54;96047.78;5029351;28;20348;-59
2022/05/17 10:02:56;;;;;;;3.95;3.42;;;;;;;27.62;36.64;96048.47;5029878;28;20025;-59
2022/05/17 10:05:26;;;;;;;6.03;3.13;;;;;;;27.42;37.18;96048.88;5029955;28;20029;-59
2022/05/17 10:08:15;;;;;;;7.00;3.45;;;;;;;27.39;38.49;96050.16;5030018;28;20116;-59
2022/05/17 10:10:45;;;;;;;6.15;3.42;;;;;;;27.87;37.33;96047.28;5024059;28;20421;-58
2022/05/17 10:13:24;;;;;;;8.27;3.30;;;;;;;27.61;38.09;96046.81;5029784;28;20117;-59
2022/05/17 10:16:31;;;;;;;7.00;3.08;;;;;;;27.80;38.63;96043.91;5029691;28;20517;-59
2022/05/17 10:19:00;;;;;;;5.95;3.08;;;;;;;27.86;39.14;96048.34;5015486;28;20037;-59
2022/05/17 10:21:33;;;;;;;5.00;3.28;;;;;;;28.11;38.17;96044.44;5029721;28;20067;-59
2022/05/17 10:24:16;;;;;;;5.93;3.35;;;;;;;28.16;38.40;96044.53;5029750;28;20108;-59
2022/05/17 10:26:51;;;;;;;4.45;3.55;;;;;;;27.73;38.82;96042.16;5029805;28;20114;-59
2022/05/17 10:29:33;;;;;;;6.93;3.92;;;;;;;28.08;39.05;96042.22;5029547;28;20030;-59
2022/05/17 10:32:10;;;;;;;3.80;3.10;;;;;;;28.60;37.05;96035.75;5029539;28;20221;-59
2022/05/17 10:34:45;;;;;;;6.55;3.50;;;;;;;28.64;37.68;96041.50;5014946;28;20104;-59
2022/05/17 10:37:19;;;;;;;8.25;3.55;;;;;;;28.16;38.97;96036.41;5013606;28;20121;-59
2022/05/17 10:40:04;;;;;;;6.32;3.40;;;;;;;27.79;40.46;96042.28;5029657;28;20029;-59
2022/05/17 10:42:29;;;;;;;;;;;;;;;28.44;38.06;96030.09;5029944;28;20413;-59
2022/05/17 10:44:58;;;;;;;5.70;3.40;;;;;;;28.56;37.63;96031.91;5029576;28;19967;-59
2022/05/17 10:47:43;;;;;;;4.05;3.50;;;;;;;28.05;39.60;96029.97;5029460;28;20030;-59
2022/05/17 10:50:16;;;;;;;6.38;3.10;;;;;;;28.60;38.60;96031.13;5029716;28;20037;-59
2022/05/17 10:52:46;;;;;;;8.95;3.15;;;;;;;28.78;38.58;96026.50;5028270;28;20065;-59
2022/05/17 10:55:37;;;;;;;6.15;2.97;;;;;;;28.80;37.60;96031.72;5029363;28;20021;-59
2022/05/17 10:58:28;;;;;;;11.52;3.05;;;;;;;28.88;37.55;96036.69;5029337;28;20107;-59
2022/05/17 11:01:12;;;;;;;6.78;2.92;;;;;;;29.29;35.57;96029.06;5029164;28;20049;-59
2022/05/17 11:03:53;;;;;;;5.93;3.00;;;;;;;28.77;38.13;96024.88;5029587;28;20021;-59
2022/05/17 11:06:21;;;;;;;5.38;3.20;;;;;;;29.02;36.43;96018.16;5029481;28;20057;-58
2022/05/17 11:09:02;;;;;;;8.18;3.38;;;;;;;29.29;34.86;96012.81;5029151;28;20037;-59
2022/05/17 11:11:40;;;;;;;6.45;3.30;;;;;;;28.44;38.30;96016.56;5029991;28;20430;-58
2022/05/17 11:14:24;;;;;;;5.10;2.88;;;;;;;28.69;37.27;96017.97;5032805;28;20087;-59
2022/05/17 11:17:01;;;;;;;8.77;3.33;;;;;;;29.25;36.11;96006.25;5032854;28;20446;-59
2022/05/17 11:19:39;;;;;;;8.25;3.85;;;;;;;29.17;36.05;96007.50;5032689;28;20060;-59
2022/05/17 11:22:27;;;;;;;5.65;2.80;;;;;;;28.78;37.62;96007.53;5032746;28;20114;-58
2022/05/17 11:24:59;;;;;;;4.47;3.10;;;;;;;28.59;36.99;96002.41;5032738;28;20017;-59
2022/05/17 11:27:33;;;;;;;6.65;3.22;;;;;;;28.70;37.34;95997.16;5032580;28;20087;-59
2022/05/17 11:30:04;;;;;;;5.53;3.45;;;;;;;29.29;35.73;95993.81;5032448;28;20545;-58
2022/05/17 11:32:35;;;;;;;5.03;3.10;;;;;;;29.59;35.09;96002.56;5032546;28;20448;-59
2022/05/17 11:35:04;;;;;;;5.78;3.63;;;;;;;29.29;35.30;95987.56;5032381;28;20025;-59
2022/05/17 11:37:32;;;;;;;9.18;3.35;;;;;;;28.79;36.35;95979.41;5032519;28;20025;-59
2022/05/17 11:39:58;;;;;;;7.57;3.15;;;;;;;29.82;34.74;95978.91;5032425;28;20017;-59
2022/05/17 11:42:32;;;;;;;5.70;3.45;;;;;;;29.33;35.46;95985.19;5031667;28;20095;-59
2022/05/17 11:45:22;;;;;;;7.80;3.10;;;;;;;29.01;35.67;95982.13;5031510;28;20517;-59
2022/05/17 11:47:56;;;;;;;5.25;3.13;;;;;;;29.25;36.29;95978.31;5026168;28;20121;-59
2022/05/17 11:50:27;;;;;;;3.20;2.90;;;;;;;29.11;35.71;95970.59;5032511;28;20386;-59
2022/05/17 11:53:24;;;;;;;4.72;3.40;;;;;;;29.93;34.87;95964.31;5032146;28;20515;-59
2022/05/17 11:56:18;;;;;;;7.15;3.97;;;;;;;29.56;35.61;95967.81;5029309;28;20052;-59
2022/05/17 11:58:49;;;;;;;7.13;3.38;;;;;;;29.76;34.49;95969.91;5032378;28;20052;-59